sensor_id;sensor_type;location;lat;lon;timestamp;pressure;altitude;pressure_sealevel;temperature
64296;BMP280;51082;38.236;15.432;2023-04-09T00:00:12;101415.66;;;13.23
64296;BMP280;51082;38.236;15.432;2023-04-09T00:01:15;101412.41;;;13.21
64296;BMP280;51082;38.236;15.432;2023-04-09T00:02:18;101418.91;;;13.25
64296;BMP280;51082;38.236;15.432;2023-04-09T00:03:20;101406.72;;;13.32
64296;BMP280;51082;38.236;15.432;2023-04-09T00:04:22;101401.66;;;13.30
64296;BMP280;51082;38.236;15.432;2023-04-09T00:05:24;101401.41;;;13.25
64296;BMP280;51082;38.236;15.432;2023-04-09T00:06:27;101400.78;;;13.23
64296;BMP280;51082;38.236;15.432;2023-04-09T00:07:28;101402.19;;;13.19
64296;BMP280;51082;38.236;15.432;2023-04-09T00:08:33;101397.19;;;13.24
64296;BMP280;51082;38.236;15.432;2023-04-09T00:09:35;101395.59;;;13.30
64296;BMP280;51082;38.236;15.432;2023-04-09T00:10:38;101392.59;;;13.33
64296;BMP280;51082;38.236;15.432;2023-04-09T00:11:39;101387.59;;;13.31
64296;BMP280;51082;38.236;15.432;2023-04-09T00:12:42;101388.41;;;13.32
64296;BMP280;51082;38.236;15.432;2023-04-09T00:13:44;101392.25;;;13.36
64296;BMP280;51082;38.236;15.432;2023-04-09T00:14:47;101396.03;;;13.33
64296;BMP280;51082;38.236;15.432;2023-04-09T00:15:48;101386.16;;;13.29
64296;BMP280;51082;38.236;15.432;2023-04-09T00:16:51;101388.16;;;13.27
64296;BMP280;51082;38.236;15.432;2023-04-09T00:17:53;101381.56;;;13.31
64296;BMP280;51082;38.236;15.432;2023-04-09T00:18:56;101378.13;;;13.30
64296;BMP280;51082;38.236;15.432;2023-04-09T00:19:58;101387.16;;;13.28
64296;BMP280;51082;38.236;15.432;2023-04-09T00:21:00;101381.31;;;13.26
64296;BMP280;51082;38.236;15.432;2023-04-09T00:22:02;101385.91;;;13.24
64296;BMP280;51082;38.236;15.432;2023-04-09T00:23:05;101381.50;;;13.24
64296;BMP280;51082;38.236;15.432;2023-04-09T00:24:08;101381.94;;;13.28
64296;BMP280;51082;38.236;15.432;2023-04-09T00:25:11;101387.16;;;13.28
64296;BMP280;51082;38.236;15.432;2023-04-09T00:26:13;101386.34;;;13.27
64296;BMP280;51082;38.236;15.432;2023-04-09T00:27:16;101380.31;;;13.27
64296;BMP280;51082;38.236;15.432;2023-04-09T00:28:17;101392.19;;;13.29
64296;BMP280;51082;38.236;15.432;2023-04-09T00:29:20;101383.19;;;13.32
64296;BMP280;51082;38.236;15.432;2023-04-09T00:30:22;101396.03;;;13.33
64296;BMP280;51082;38.236;15.432;2023-04-09T00:31:25;101417.03;;;13.40
64296;BMP280;51082;38.236;15.432;2023-04-09T00:32:27;101415.13;;;13.34
64296;BMP280;51082;38.236;15.432;2023-04-09T00:33:30;101412.19;;;13.37
64296;BMP280;51082;38.236;15.432;2023-04-09T00:34:31;101402.53;;;13.37
64296;BMP280;51082;38.236;15.432;2023-04-09T00:35:34;101411.72;;;13.33
64296;BMP280;51082;38.236;15.432;2023-04-09T00:36:36;101411.94;;;13.32
64296;BMP280;51082;38.236;15.432;2023-04-09T00:37:39;101403.94;;;13.40
64296;BMP280;51082;38.236;15.432;2023-04-09T00:38:40;101400.13;;;13.42
64296;BMP280;51082;38.236;15.432;2023-04-09T00:39:45;101395.94;;;13.48
64296;BMP280;51082;38.236;15.432;2023-04-09T00:40:48;101381.31;;;13.54
64296;BMP280;51082;38.236;15.432;2023-04-09T00:41:55;101359.59;;;13.60
64296;BMP280;51082;38.236;15.432;2023-04-09T00:42:58;101337.50;;;13.62
64296;BMP280;51082;38.236;15.432;2023-04-09T00:44:01;101327.28;;;13.67
64296;BMP280;51082;38.236;15.432;2023-04-09T00:45:03;101322.66;;;13.69
64296;BMP280;51082;38.236;15.432;2023-04-09T00:46:06;101306.38;;;13.74
64296;BMP280;51082;38.236;15.432;2023-04-09T00:47:08;101298.72;;;13.72
64296;BMP280;51082;38.236;15.432;2023-04-09T00:48:11;101301.13;;;13.74
64296;BMP280;51082;38.236;15.432;2023-04-09T00:49:13;101292.47;;;13.73
64296;BMP280;51082;38.236;15.432;2023-04-09T00:50:16;101298.31;;;13.75
64296;BMP280;51082;38.236;15.432;2023-04-09T00:51:18;101300.34;;;13.80
64296;BMP280;51082;38.236;15.432;2023-04-09T00:52:20;101289.69;;;13.82
64296;BMP280;51082;38.236;15.432;2023-04-09T00:53:22;101287.25;;;13.80
64296;BMP280;51082;38.236;15.432;2023-04-09T00:54:25;101287.69;;;13.84
64296;BMP280;51082;38.236;15.432;2023-04-09T00:55:28;101282.47;;;13.84
64296;BMP280;51082;38.236;15.432;2023-04-09T00:56:32;101276.03;;;13.86
64296;BMP280;51082;38.236;15.432;2023-04-09T00:57:35;101282.47;;;13.84
64296;BMP280;51082;38.236;15.432;2023-04-09T00:58:39;101279.66;;;13.85
64296;BMP280;51082;38.236;15.432;2023-04-09T00:59:41;101282.84;;;13.81
64296;BMP280;51082;38.236;15.432;2023-04-09T01:00:44;101292.13;;;13.83
64296;BMP280;51082;38.236;15.432;2023-04-09T01:01:46;101300.59;;;13.85
64296;BMP280;51082;38.236;15.432;2023-04-09T01:02:49;101298.16;;;13.84
64296;BMP280;51082;38.236;15.432;2023-04-09T01:03:51;101302.78;;;13.82
64296;BMP280;51082;38.236;15.432;2023-04-09T01:04:55;101306.00;;;13.84
64296;BMP280;51082;38.236;15.432;2023-04-09T01:06:02;101311.25;;;13.90
64296;BMP280;51082;38.236;15.432;2023-04-09T01:07:12;101317.53;;;13.96
64296;BMP280;51082;38.236;15.432;2023-04-09T01:08:25;101314.31;;;13.94
64296;BMP280;51082;38.236;15.432;2023-04-09T01:09:35;101318.72;;;13.93
64296;BMP280;51082;38.236;15.432;2023-04-09T01:10:42;101321.16;;;13.95
64296;BMP280;51082;38.236;15.432;2023-04-09T01:11:54;101318.75;;;14.00
64296;BMP280;51082;38.236;15.432;2023-04-09T01:13:05;101319.97;;;14.04
64296;BMP280;51082;38.236;15.432;2023-04-09T01:14:15;101322.19;;;14.07
64296;BMP280;51082;38.236;15.432;2023-04-09T01:15:25;101327.44;;;14.07
64296;BMP280;51082;38.236;15.432;2023-04-09T01:16:29;101326.03;;;14.11
64296;BMP280;51082;38.236;15.432;2023-04-09T01:17:40;101317.00;;;14.14
64296;BMP280;51082;38.236;15.432;2023-04-09T01:18:49;101312.34;;;14.16
64296;BMP280;51082;38.236;15.432;2023-04-09T01:19:59;101303.91;;;14.14
64296;BMP280;51082;38.236;15.432;2023-04-09T01:21:05;101307.09;;;14.16
64296;BMP280;51082;38.236;15.432;2023-04-09T01:22:21;101301.06;;;14.15
64296;BMP280;51082;38.236;15.432;2023-04-09T01:23:34;101300.69;;;14.18
64296;BMP280;51082;38.236;15.432;2023-04-09T01:24:43;101304.91;;;14.19
64296;BMP280;51082;38.236;15.432;2023-04-09T01:25:59;101306.94;;;14.24
64296;BMP280;51082;38.236;15.432;2023-04-09T01:27:05;101300.53;;;14.26
64296;BMP280;51082;38.236;15.432;2023-04-09T01:28:17;101300.28;;;14.28
64296;BMP280;51082;38.236;15.432;2023-04-09T01:29:20;101290.03;;;14.26
64296;BMP280;51082;38.236;15.432;2023-04-09T01:30:25;101299.09;;;14.30
64296;BMP280;51082;38.236;15.432;2023-04-09T01:31:30;101291.06;;;14.32
64296;BMP280;51082;38.236;15.432;2023-04-09T01:32:36;101294.84;;;14.29
64296;BMP280;51082;38.236;15.432;2023-04-09T01:33:39;101297.47;;;14.29
64296;BMP280;51082;38.236;15.432;2023-04-09T01:34:44;101280.16;;;14.28
64296;BMP280;51082;38.236;15.432;2023-04-09T01:35:47;101276.16;;;14.26
64296;BMP280;51082;38.236;15.432;2023-04-09T01:36:54;101264.44;;;14.28
64296;BMP280;51082;38.236;15.432;2023-04-09T01:37:57;101258.19;;;14.29
64296;BMP280;51082;38.236;15.432;2023-04-09T01:39:01;101254.97;;;14.27
64296;BMP280;51082;38.236;15.432;2023-04-09T01:40:03;101254.75;;;14.29
64296;BMP280;51082;38.236;15.432;2023-04-09T01:41:08;101266.03;;;14.29
64296;BMP280;51082;38.236;15.432;2023-04-09T01:42:14;101258.38;;;14.28
64296;BMP280;51082;38.236;15.432;2023-04-09T01:43:19;101259.44;;;14.27
64296;BMP280;51082;38.236;15.432;2023-04-09T01:44:23;101258.78;;;14.25
64296;BMP280;51082;38.236;15.432;2023-04-09T01:45:26;101260.00;;;14.22
64296;BMP280;51082;38.236;15.432;2023-04-09T01:46:30;101266.84;;;14.17
64296;BMP280;51082;38.236;15.432;2023-04-09T01:47:32;101255.56;;;14.16
64296;BMP280;51082;38.236;15.432;2023-04-09T01:48:36;101258.19;;;14.16
64296;BMP280;51082;38.236;15.432;2023-04-09T01:49:41;101262.22;;;14.12
64296;BMP280;51082;38.236;15.432;2023-04-09T01:50:44;101263.63;;;14.08
64296;BMP280;51082;38.236;15.432;2023-04-09T01:51:46;101262.38;;;14.04
64296;BMP280;51082;38.236;15.432;2023-04-09T01:52:49;101255.13;;;14.06
64296;BMP280;51082;38.236;15.432;2023-04-09T01:53:51;101254.94;;;14.01
64296;BMP280;51082;38.236;15.432;2023-04-09T01:54:54;101258.75;;;13.98
64296;BMP280;51082;38.236;15.432;2023-04-09T01:55:58;101259.56;;;13.99
64296;BMP280;51082;38.236;15.432;2023-04-09T01:57:01;101257.91;;;13.98
64296;BMP280;51082;38.236;15.432;2023-04-09T01:58:03;101259.97;;;13.96
64296;BMP280;51082;38.236;15.432;2023-04-09T01:59:07;101263.16;;;13.98
64296;BMP280;51082;38.236;15.432;2023-04-09T02:00:10;101258.75;;;13.98
64296;BMP280;51082;38.236;15.432;2023-04-09T02:01:18;101257.53;;;13.94
64296;BMP280;51082;38.236;15.432;2023-04-09T02:02:27;101249.88;;;13.93
64296;BMP280;51082;38.236;15.432;2023-04-09T02:03:33;101255.53;;;13.90
64296;BMP280;51082;38.236;15.432;2023-04-09T02:04:40;101256.09;;;13.85
64296;BMP280;51082;38.236;15.432;2023-04-09T02:05:45;101250.25;;;13.83
64296;BMP280;51082;38.236;15.432;2023-04-09T02:06:56;101248.66;;;13.82
64296;BMP280;51082;38.236;15.432;2023-04-09T02:08:00;101247.81;;;13.75
64296;BMP280;51082;38.236;15.432;2023-04-09T02:09:07;101244.38;;;13.74
64296;BMP280;51082;38.236;15.432;2023-04-09T02:10:10;101236.94;;;13.71
64296;BMP280;51082;38.236;15.432;2023-04-09T02:11:15;101242.16;;;13.71
64296;BMP280;51082;38.236;15.432;2023-04-09T02:12:17;101234.50;;;13.70
64296;BMP280;51082;38.236;15.432;2023-04-09T02:13:21;101233.50;;;13.71
64296;BMP280;51082;38.236;15.432;2023-04-09T02:14:26;101235.50;;;13.69
64296;BMP280;51082;38.236;15.432;2023-04-09T02:15:31;101234.72;;;13.68
64296;BMP280;51082;38.236;15.432;2023-04-09T02:16:33;101213.13;;;13.66
64296;BMP280;51082;38.236;15.432;2023-04-09T02:17:36;101222.25;;;13.70
64296;BMP280;51082;38.236;15.432;2023-04-09T02:18:38;101220.03;;;13.67
64296;BMP280;51082;38.236;15.432;2023-04-09T02:19:41;101223.25;;;13.69
64296;BMP280;51082;38.236;15.432;2023-04-09T02:20:43;101221.63;;;13.68
64296;BMP280;51082;38.236;15.432;2023-04-09T02:21:47;101215.59;;;13.68
64296;BMP280;51082;38.236;15.432;2023-04-09T02:22:49;101224.25;;;13.68
64296;BMP280;51082;38.236;15.432;2023-04-09T02:23:52;101216.41;;;13.68
64296;BMP280;51082;38.236;15.432;2023-04-09T02:24:54;101222.63;;;13.67
64296;BMP280;51082;38.236;15.432;2023-04-09T02:25:56;101220.03;;;13.67
64296;BMP280;51082;38.236;15.432;2023-04-09T02:26:58;101221.00;;;13.66
64296;BMP280;51082;38.236;15.432;2023-04-09T02:28:02;101222.81;;;13.66
64296;BMP280;51082;38.236;15.432;2023-04-09T02:29:03;101220.41;;;13.64
64296;BMP280;51082;38.236;15.432;2023-04-09T02:30:09;101218.00;;;13.63
64296;BMP280;51082;38.236;15.432;2023-04-09T02:31:11;101211.97;;;13.62
64296;BMP280;51082;38.236;15.432;2023-04-09T02:32:14;101216.34;;;13.62
64296;BMP280;51082;38.236;15.432;2023-04-09T02:33:15;101216.34;;;13.62
64296;BMP280;51082;38.236;15.432;2023-04-09T02:34:18;101219.81;;;13.62
64296;BMP280;51082;38.236;15.432;2023-04-09T02:35:20;101221.59;;;13.62
64296;BMP280;51082;38.236;15.432;2023-04-09T02:36:23;101220.78;;;13.61
64296;BMP280;51082;38.236;15.432;2023-04-09T02:37:25;101224.19;;;13.62
64296;BMP280;51082;38.236;15.432;2023-04-09T02:38:27;101221.59;;;13.62
64296;BMP280;51082;38.236;15.432;2023-04-09T02:39:29;101227.66;;;13.62
64296;BMP280;51082;38.236;15.432;2023-04-09T02:40:32;101229.44;;;13.62
64296;BMP280;51082;38.236;15.432;2023-04-09T02:41:34;101234.50;;;13.63
64296;BMP280;51082;38.236;15.432;2023-04-09T02:42:37;101239.31;;;13.66
64296;BMP280;51082;38.236;15.432;2023-04-09T02:43:38;101247.78;;;13.68
64296;BMP280;51082;38.236;15.432;2023-04-09T02:44:41;101265.09;;;13.69
64296;BMP280;51082;38.236;15.432;2023-04-09T02:45:45;101252.22;;;13.68
64296;BMP280;51082;38.236;15.432;2023-04-09T02:46:49;101230.28;;;13.62
64296;BMP280;51082;38.236;15.432;2023-04-09T02:47:52;101129.34;;;13.27
64296;BMP280;51082;38.236;15.432;2023-04-09T02:48:55;101104.59;;;13.23
64296;BMP280;51082;38.236;15.432;2023-04-09T02:49:57;101112.88;;;13.33
64296;BMP280;51082;38.236;15.432;2023-04-09T02:51:04;101126.22;;;13.44
64296;BMP280;51082;38.236;15.432;2023-04-09T02:52:06;101117.13;;;13.40
64296;BMP280;51082;38.236;15.432;2023-04-09T02:53:13;101084.91;;;13.33
64296;BMP280;51082;38.236;15.432;2023-04-09T02:54:14;101082.09;;;13.35
64296;BMP280;51082;38.236;15.432;2023-04-09T02:55:18;101069.44;;;13.32
64296;BMP280;51082;38.236;15.432;2023-04-09T02:56:19;101065.44;;;13.36
64296;BMP280;51082;38.236;15.432;2023-04-09T02:57:22;101069.66;;;13.37
64296;BMP280;51082;38.236;15.432;2023-04-09T02:58:24;101072.28;;;13.37
64296;BMP280;51082;38.236;15.432;2023-04-09T02:59:26;101063.63;;;13.36
64296;BMP280;51082;38.236;15.432;2023-04-09T03:00:28;101067.41;;;13.34
64296;BMP280;51082;38.236;15.432;2023-04-09T03:01:32;101063.78;;;13.35
64296;BMP280;51082;38.236;15.432;2023-04-09T03:02:34;101057.59;;;13.36
64296;BMP280;51082;38.236;15.432;2023-04-09T03:03:37;101056.16;;;13.33
64296;BMP280;51082;38.236;15.432;2023-04-09T03:04:42;101036.84;;;13.28
64296;BMP280;51082;38.236;15.432;2023-04-09T03:05:45;101028.78;;;13.16
64296;BMP280;51082;38.236;15.432;2023-04-09T03:06:47;101020.06;;;12.96
64296;BMP280;51082;38.236;15.432;2023-04-09T03:07:53;101006.97;;;12.89
64296;BMP280;51082;38.236;15.432;2023-04-09T03:08:56;100993.72;;;12.84
64296;BMP280;51082;38.236;15.432;2023-04-09T03:09:57;101004.31;;;12.76
64296;BMP280;51082;38.236;15.432;2023-04-09T03:11:01;100992.09;;;12.83
64296;BMP280;51082;38.236;15.432;2023-04-09T03:12:03;100985.69;;;12.85
64296;BMP280;51082;38.236;15.432;2023-04-09T03:13:05;100985.66;;;12.79
64296;BMP280;51082;38.236;15.432;2023-04-09T03:14:07;100981.59;;;12.70
64296;BMP280;51082;38.236;15.432;2023-04-09T03:15:11;100985.63;;;12.66
64296;BMP280;51082;38.236;15.432;2023-04-09T03:16:12;100984.81;;;12.65
64296;BMP280;51082;38.236;15.432;2023-04-09T03:17:17;100975.59;;;12.69
64296;BMP280;51082;38.236;15.432;2023-04-09T03:18:19;100985.16;;;12.55
64296;BMP280;51082;38.236;15.432;2023-04-09T03:19:21;100978.72;;;12.51
64296;BMP280;51082;38.236;15.432;2023-04-09T03:20:23;100970.25;;;12.49
64296;BMP280;51082;38.236;15.432;2023-04-09T03:21:26;100965.03;;;12.49
64296;BMP280;51082;38.236;15.432;2023-04-09T03:22:28;100973.50;;;12.51
64296;BMP280;51082;38.236;15.432;2023-04-09T03:23:31;100962.44;;;12.49
64296;BMP280;51082;38.236;15.432;2023-04-09T03:24:35;100967.25;;;12.52
64296;BMP280;51082;38.236;15.432;2023-04-09T03:25:37;100963.22;;;12.50
64296;BMP280;51082;38.236;15.432;2023-04-09T03:26:39;100965.28;;;12.54
64296;BMP280;51082;38.236;15.432;2023-04-09T03:27:42;100966.69;;;12.50
64296;BMP280;51082;38.236;15.432;2023-04-09T03:28:44;100967.84;;;12.48
64296;BMP280;51082;38.236;15.432;2023-04-09T03:29:46;100973.25;;;12.46
64296;BMP280;51082;38.236;15.432;2023-04-09T03:30:48;100968.63;;;12.42
64296;BMP280;51082;38.236;15.432;2023-04-09T03:31:51;100974.81;;;12.34
64296;BMP280;51082;38.236;15.432;2023-04-09T03:32:54;100962.75;;;12.33
64296;BMP280;51082;38.236;15.432;2023-04-09T03:33:59;100960.53;;;12.30
64296;BMP280;51082;38.236;15.432;2023-04-09T03:35:01;100964.97;;;12.29
64296;BMP280;51082;38.236;15.432;2023-04-09T03:36:04;100962.53;;;12.28
64296;BMP280;51082;38.236;15.432;2023-04-09T03:37:06;100963.50;;;12.27
64296;BMP280;51082;38.236;15.432;2023-04-09T03:38:09;100958.50;;;12.25
64296;BMP280;51082;38.236;15.432;2023-04-09T03:39:11;100955.31;;;12.23
64296;BMP280;51082;38.236;15.432;2023-04-09T03:40:13;100957.69;;;12.25
64296;BMP280;51082;38.236;15.432;2023-04-09T03:41:15;100953.06;;;12.27
64296;BMP280;51082;38.236;15.432;2023-04-09T03:42:18;100956.09;;;12.24
64296;BMP280;51082;38.236;15.432;2023-04-09T03:43:21;100952.47;;;12.25
64296;BMP280;51082;38.236;15.432;2023-04-09T03:44:22;100954.66;;;12.21
64296;BMP280;51082;38.236;15.432;2023-04-09T03:45:25;100951.25;;;12.21
64296;BMP280;51082;38.236;15.432;2023-04-09T03:46:27;100956.09;;;12.24
64296;BMP280;51082;38.236;15.432;2023-04-09T03:47:30;100958.50;;;12.25
64296;BMP280;51082;38.236;15.432;2023-04-09T03:48:34;100965.28;;;12.20
64296;BMP280;51082;38.236;15.432;2023-04-09T03:49:37;100969.75;;;12.26
64296;BMP280;51082;38.236;15.432;2023-04-09T03:50:39;100962.94;;;12.32
64296;BMP280;51082;38.236;15.432;2023-04-09T03:51:45;100974.81;;;12.34
64296;BMP280;51082;38.236;15.432;2023-04-09T03:52:46;100972.94;;;12.21
64296;BMP280;51082;38.236;15.432;2023-04-09T03:53:50;100972.97;;;12.28
64296;BMP280;51082;38.236;15.432;2023-04-09T03:54:51;100972.19;;;12.34
64296;BMP280;51082;38.236;15.432;2023-04-09T03:55:55;100975.81;;;12.40
64296;BMP280;51082;38.236;15.432;2023-04-09T03:56:56;100982.28;;;12.44
64296;BMP280;51082;38.236;15.432;2023-04-09T03:58:01;100981.91;;;12.47
64296;BMP280;51082;38.236;15.432;2023-04-09T03:59:03;100982.34;;;12.50
64296;BMP280;51082;38.236;15.432;2023-04-09T04:00:07;100977.69;;;12.52
64296;BMP280;51082;38.236;15.432;2023-04-09T04:01:09;100986.16;;;12.54
64296;BMP280;51082;38.236;15.432;2023-04-09T04:02:12;100992.34;;;12.53
64296;BMP280;51082;38.236;15.432;2023-04-09T04:03:13;100998.81;;;12.51
64296;BMP280;51082;38.236;15.432;2023-04-09T04:04:19;100991.16;;;12.49
64296;BMP280;51082;38.236;15.432;2023-04-09T04:05:22;100986.72;;;12.50
64296;BMP280;51082;38.236;15.432;2023-04-09T04:06:25;100987.28;;;12.45
64296;BMP280;51082;38.236;15.432;2023-04-09T04:07:28;100987.72;;;12.42
64296;BMP280;51082;38.236;15.432;2023-04-09T04:08:30;100983.25;;;12.36
64296;BMP280;51082;38.236;15.432;2023-04-09T04:09:32;100991.47;;;12.33
64296;BMP280;51082;38.236;15.432;2023-04-09T04:10:35;100992.47;;;12.32
64296;BMP280;51082;38.236;15.432;2023-04-09T04:11:37;100988.22;;;12.31
64296;BMP280;51082;38.236;15.432;2023-04-09T04:12:40;100986.03;;;12.28
64296;BMP280;51082;38.236;15.432;2023-04-09T04:13:41;100983.78;;;12.25
64296;BMP280;51082;38.236;15.432;2023-04-09T04:14:44;100991.00;;;12.23
64296;BMP280;51082;38.236;15.432;2023-04-09T04:15:46;100987.16;;;12.19
64296;BMP280;51082;38.236;15.432;2023-04-09T04:16:48;100987.75;;;12.14
64296;BMP280;51082;38.236;15.432;2023-04-09T04:17:50;100983.34;;;12.15
64296;BMP280;51082;38.236;15.432;2023-04-09T04:18:53;100980.06;;;12.06
64296;BMP280;51082;38.236;15.432;2023-04-09T04:19:56;100980.66;;;12.02
64296;BMP280;51082;38.236;15.432;2023-04-09T04:20:59;100979.63;;;12.03
64296;BMP280;51082;38.236;15.432;2023-04-09T04:22:01;100977.00;;;12.03
64296;BMP280;51082;38.236;15.432;2023-04-09T04:23:04;100972.81;;;12.02
64296;BMP280;51082;38.236;15.432;2023-04-09T04:24:05;100961.13;;;11.97
64296;BMP280;51082;38.236;15.432;2023-04-09T04:25:09;100961.13;;;11.97
64296;BMP280;51082;38.236;15.432;2023-04-09T04:26:11;100958.47;;;11.91
64296;BMP280;51082;38.236;15.432;2023-04-09T04:27:13;100965.50;;;11.90
64296;BMP280;51082;38.236;15.432;2023-04-09T04:28:16;100966.13;;;11.92
64296;BMP280;51082;38.236;15.432;2023-04-09T04:29:18;100955.50;;;11.94
64296;BMP280;51082;38.236;15.432;2023-04-09T04:30:21;100951.63;;;11.83
64296;BMP280;51082;38.236;15.432;2023-04-09T04:31:23;100951.78;;;11.82
64296;BMP280;51082;38.236;15.432;2023-04-09T04:32:26;100949.00;;;11.83
64296;BMP280;51082;38.236;15.432;2023-04-09T04:33:28;100955.03;;;11.84
64296;BMP280;51082;38.236;15.432;2023-04-09T04:34:30;100953.22;;;11.84
64296;BMP280;51082;38.236;15.432;2023-04-09T04:35:34;100948.22;;;11.83
64296;BMP280;51082;38.236;15.432;2023-04-09T04:36:36;100948.59;;;11.80
64296;BMP280;51082;38.236;15.432;2023-04-09T04:37:44;100942.56;;;11.79
64296;BMP280;51082;38.236;15.432;2023-04-09T04:38:51;100942.94;;;11.76
64296;BMP280;51082;38.236;15.432;2023-04-09T04:39:53;100938.53;;;11.77
64296;BMP280;51082;38.236;15.432;2023-04-09T04:40:55;100943.31;;;11.73
64296;BMP280;51082;38.236;15.432;2023-04-09T04:41:57;100943.69;;;11.70
64296;BMP280;51082;38.236;15.432;2023-04-09T04:43:01;100938.72;;;11.75
64296;BMP280;51082;38.236;15.432;2023-04-09T04:44:03;100933.50;;;11.75
64296;BMP280;51082;38.236;15.432;2023-04-09T04:45:07;100931.28;;;11.72
64296;BMP280;51082;38.236;15.432;2023-04-09T04:46:09;100934.69;;;11.73
64296;BMP280;51082;38.236;15.432;2023-04-09T04:47:12;100938.09;;;11.73
64296;BMP280;51082;38.236;15.432;2023-04-09T04:48:13;100930.66;;;11.70
64296;BMP280;51082;38.236;15.432;2023-04-09T04:49:16;100940.44;;;11.68
64296;BMP280;51082;38.236;15.432;2023-04-09T04:50:18;100925.00;;;11.66
64296;BMP280;51082;38.236;15.432;2023-04-09T04:51:22;100925.38;;;11.63
64296;BMP280;51082;38.236;15.432;2023-04-09T04:52:23;100923.78;;;11.62
64296;BMP280;51082;38.236;15.432;2023-04-09T04:53:27;100916.75;;;11.63
64296;BMP280;51082;38.236;15.432;2023-04-09T04:54:28;100927.53;;;11.60
64296;BMP280;51082;38.236;15.432;2023-04-09T04:55:33;100925.72;;;11.54
64296;BMP280;51082;38.236;15.432;2023-04-09T04:56:35;100925.84;;;11.46
64296;BMP280;51082;38.236;15.432;2023-04-09T04:57:38;100916.59;;;11.43
64296;BMP280;51082;38.236;15.432;2023-04-09T04:58:39;100918.00;;;11.46
64296;BMP280;51082;38.236;15.432;2023-04-09T04:59:42;100907.03;;;11.50
64296;BMP280;51082;38.236;15.432;2023-04-09T05:00:44;100908.09;;;11.56
64296;BMP280;51082;38.236;15.432;2023-04-09T05:01:47;100910.28;;;11.59
64296;BMP280;51082;38.236;15.432;2023-04-09T05:02:49;100905.50;;;11.56
64296;BMP280;51082;38.236;15.432;2023-04-09T05:03:52;100908.66;;;11.51
64296;BMP280;51082;38.236;15.432;2023-04-09T05:04:53;100904.19;;;11.45
64296;BMP280;51082;38.236;15.432;2023-04-09T05:05:56;100903.75;;;11.41
64296;BMP280;51082;38.236;15.432;2023-04-09T05:07:00;100905.75;;;11.39
64296;BMP280;51082;38.236;15.432;2023-04-09T05:08:02;100902.50;;;11.37
64296;BMP280;51082;38.236;15.432;2023-04-09T05:09:05;100905.53;;;11.34
64296;BMP280;51082;38.236;15.432;2023-04-09T05:10:08;100898.13;;;11.38
64296;BMP280;51082;38.236;15.432;2023-04-09T05:11:11;100891.34;;;11.44
64296;BMP280;51082;38.236;15.432;2023-04-09T05:12:12;100891.16;;;11.45
64296;BMP280;51082;38.236;15.432;2023-04-09T05:13:17;100893.56;;;11.47
64296;BMP280;51082;38.236;15.432;2023-04-09T05:14:19;100897.63;;;11.49
64296;BMP280;51082;38.236;15.432;2023-04-09T05:15:22;100895.41;;;11.53
64296;BMP280;51082;38.236;15.432;2023-04-09T05:16:25;100900.03;;;11.51
64296;BMP280;51082;38.236;15.432;2023-04-09T05:17:27;100900.22;;;11.49
64296;BMP280;51082;38.236;15.432;2023-04-09T05:18:30;100896.63;;;11.50
64296;BMP280;51082;38.236;15.432;2023-04-09T05:19:31;100897.84;;;11.54
64296;BMP280;51082;38.236;15.432;2023-04-09T05:20:34;100897.03;;;11.54
64296;BMP280;51082;38.236;15.432;2023-04-09T05:21:36;100903.25;;;11.53
64296;BMP280;51082;38.236;15.432;2023-04-09T05:22:40;100897.41;;;11.51
64296;BMP280;51082;38.236;15.432;2023-04-09T05:23:42;100892.22;;;11.51
64296;BMP280;51082;38.236;15.432;2023-04-09T05:24:45;100888.59;;;11.52
64296;BMP280;51082;38.236;15.432;2023-04-09T05:25:50;100890.66;;;11.56
64296;BMP280;51082;38.236;15.432;2023-04-09T05:26:53;100893.66;;;11.60
64296;BMP280;51082;38.236;15.432;2023-04-09T05:27:55;100886.25;;;11.57
64296;BMP280;51082;38.236;15.432;2023-04-09T05:28:58;100899.88;;;11.59
64296;BMP280;51082;38.236;15.432;2023-04-09T05:30:00;100894.72;;;11.65
64296;BMP280;51082;38.236;15.432;2023-04-09T05:31:03;100894.31;;;11.68
64296;BMP280;51082;38.236;15.432;2023-04-09T05:32:05;100902.16;;;11.68
64296;BMP280;51082;38.236;15.432;2023-04-09T05:33:09;100896.78;;;11.70
64296;BMP280;51082;38.236;15.432;2023-04-09T05:34:11;100900.22;;;11.77
64296;BMP280;51082;38.236;15.432;2023-04-09T05:35:14;100892.03;;;11.80
64296;BMP280;51082;38.236;15.432;2023-04-09T05:36:16;100897.66;;;11.84
64296;BMP280;51082;38.236;15.432;2023-04-09T05:37:19;100890.84;;;11.89
64296;BMP280;51082;38.236;15.432;2023-04-09T05:38:23;100895.28;;;11.95
64296;BMP280;51082;38.236;15.432;2023-04-09T05:39:26;100902.56;;;12.00
64296;BMP280;51082;38.236;15.432;2023-04-09T05:40:27;100902.56;;;12.00
64296;BMP280;51082;38.236;15.432;2023-04-09T05:41:30;100905.00;;;12.02
64296;BMP280;51082;38.236;15.432;2023-04-09T05:42:33;100894.16;;;12.05
64296;BMP280;51082;38.236;15.432;2023-04-09T05:43:36;100894.59;;;12.08
64296;BMP280;51082;38.236;15.432;2023-04-09T05:44:38;100888.16;;;12.11
64296;BMP280;51082;38.236;15.432;2023-04-09T05:45:40;100884.38;;;12.13
64296;BMP280;51082;38.236;15.432;2023-04-09T05:46:42;100887.03;;;12.20
64296;BMP280;51082;38.236;15.432;2023-04-09T05:47:45;100885.00;;;12.22
64296;BMP280;51082;38.236;15.432;2023-04-09T05:48:47;100883.03;;;12.24
64296;BMP280;51082;38.236;15.432;2023-04-09T05:49:50;100883.81;;;12.24
64296;BMP280;51082;38.236;15.432;2023-04-09T05:50:52;100883.44;;;12.27
64296;BMP280;51082;38.236;15.432;2023-04-09T05:51:55;100881.44;;;12.29
64296;BMP280;51082;38.236;15.432;2023-04-09T05:52:57;100873.38;;;12.31
64296;BMP280;51082;38.236;15.432;2023-04-09T05:54:01;100878.44;;;12.33